createdAt,value
2023-09-19T00:02:07.752Z,0.90
2023-09-19T00:04:35.827Z,0.80
2023-09-19T00:07:04.042Z,0.90
2023-09-19T00:09:33.010Z,0.80
2023-09-19T00:12:02.771Z,0.80
2023-09-19T00:14:30.361Z,0.87
2023-09-19T00:16:58.591Z,1.03
2023-09-19T00:19:28.453Z,1.00
2023-09-19T00:21:56.747Z,0.90
2023-09-19T00:24:24.746Z,0.90
2023-09-19T00:26:52.244Z,1.00
2023-09-19T00:29:20.808Z,0.80
2023-09-19T00:31:49.770Z,0.70
2023-09-19T00:34:17.941Z,0.80
2023-09-19T00:36:47.328Z,0.60
2023-09-19T00:39:14.924Z,0.80
2023-09-19T00:41:45.872Z,0.93
2023-09-19T00:44:13.459Z,0.80
2023-09-19T00:46:42.318Z,1.10
2023-09-19T00:49:10.652Z,1.00
2023-09-19T00:51:39.024Z,1.30
2023-09-19T00:54:12.502Z,1.10
2023-09-19T00:56:41.466Z,1.10
2023-09-19T00:59:09.304Z,1.10
2023-09-19T01:01:40.847Z,1.20
2023-09-19T01:04:10.427Z,0.87
2023-09-19T01:06:38.420Z,1.00
2023-09-19T01:09:07.098Z,0.90
2023-09-19T01:11:40.676Z,0.97
2023-09-19T01:14:13.692Z,1.23
2023-09-19T01:16:45.204Z,0.90
2023-09-19T01:19:24.273Z,1.07
2023-09-19T01:21:58.146Z,1.00
2023-09-19T01:24:37.364Z,1.00
2023-09-19T01:27:19.653Z,0.80
2023-09-19T01:29:48.252Z,0.90
2023-09-19T01:32:22.642Z,0.90
2023-09-19T01:34:51.317Z,0.90
2023-09-19T01:37:20.727Z,1.00
2023-09-19T01:39:50.622Z,1.10
2023-09-19T01:42:23.620Z,0.70
2023-09-19T01:44:55.401Z,0.77
2023-09-19T01:47:28.783Z,0.80
2023-09-19T01:49:58.408Z,0.83
2023-09-19T01:52:30.158Z,0.80
2023-09-19T01:54:58.824Z,0.80
2023-09-19T01:57:31.052Z,0.70
2023-09-19T02:00:02.306Z,0.73
2023-09-19T02:02:45.397Z,1.00
2023-09-19T02:05:13.569Z,0.83
2023-09-19T02:07:41.577Z,1.20
2023-09-19T02:10:11.289Z,1.07
2023-09-19T02:12:39.261Z,0.70
2023-09-19T02:15:08.694Z,0.83
2023-09-19T02:17:36.735Z,0.70
2023-09-19T02:20:14.859Z,0.70
2023-09-19T02:22:42.850Z,0.80
2023-09-19T02:25:11.436Z,0.83
2023-09-19T02:27:40.782Z,0.70
2023-09-19T02:30:09.056Z,0.80
2023-09-19T02:32:39.867Z,0.83
2023-09-19T02:35:12.085Z,0.70
2023-09-19T02:37:39.988Z,0.60
2023-09-19T02:40:20.250Z,0.80
2023-09-19T02:42:50.612Z,0.70
2023-09-19T02:45:19.678Z,0.70
2023-09-19T02:47:47.604Z,0.63
2023-09-19T02:50:17.953Z,0.63
2023-09-19T02:52:47.006Z,0.77
2023-09-19T02:55:18.717Z,0.77
2023-09-19T02:57:48.147Z,0.67
2023-09-19T03:00:16.275Z,0.80
2023-09-19T03:02:47.411Z,0.80
2023-09-19T03:05:15.326Z,0.80
2023-09-19T03:07:47.320Z,0.70
2023-09-19T03:10:17.347Z,1.20
2023-09-19T03:12:45.092Z,0.77
2023-09-19T03:15:12.604Z,0.80
2023-09-19T03:17:46.123Z,0.70
2023-09-19T03:20:15.872Z,1.00
2023-09-19T03:22:45.376Z,0.90
2023-09-19T03:25:13.052Z,1.07
2023-09-19T03:27:42.499Z,0.67
2023-09-19T03:30:14.106Z,0.83
2023-09-19T03:32:48.997Z,0.90
2023-09-19T03:35:16.718Z,0.80
2023-09-19T03:37:45.924Z,0.90
2023-09-19T03:40:15.265Z,0.93
2023-09-19T03:42:44.184Z,0.70
2023-09-19T03:45:14.995Z,0.80
2023-09-19T03:47:49.217Z,0.83
2023-09-19T03:50:18.771Z,0.67
2023-09-19T03:52:48.377Z,1.03
2023-09-19T03:55:16.575Z,1.03
2023-09-19T03:57:44.104Z,0.90
2023-09-19T04:00:13.943Z,0.80
2023-09-19T04:02:42.313Z,0.90
2023-09-19T04:05:10.443Z,0.90
2023-09-19T04:07:38.111Z,1.10
2023-09-19T04:10:10.363Z,1.00
2023-09-19T04:12:37.910Z,0.90
2023-09-19T04:15:05.813Z,0.83
2023-09-19T04:17:34.563Z,0.87
2023-09-19T04:20:04.672Z,0.80
2023-09-19T04:22:32.336Z,0.90
2023-09-19T04:25:00.302Z,0.93
2023-09-19T04:27:29.790Z,1.00
2023-09-19T04:30:00.261Z,0.80
2023-09-19T04:32:30.311Z,1.07
2023-09-19T04:35:01.291Z,1.00
2023-09-19T04:37:29.944Z,1.10
2023-09-19T04:39:57.958Z,1.00
2023-09-19T04:42:27.227Z,1.00
2023-09-19T04:44:56.826Z,1.13
2023-09-19T04:47:24.484Z,0.83
2023-09-19T04:49:54.274Z,0.90
2023-09-19T04:52:21.788Z,0.87
2023-09-19T04:54:49.793Z,1.10
2023-09-19T04:57:18.620Z,0.97
2023-09-19T04:59:51.934Z,1.10
2023-09-19T05:02:21.080Z,1.20
2023-09-19T05:04:49.219Z,0.80
2023-09-19T05:07:18.243Z,0.77
2023-09-19T05:09:46.897Z,1.10
2023-09-19T05:12:14.385Z,0.80
2023-09-19T05:14:42.316Z,0.87
2023-09-19T05:17:10.373Z,1.10
2023-09-19T05:19:40.419Z,0.90
2023-09-19T05:22:08.099Z,0.90
2023-09-19T05:24:35.699Z,1.10
2023-09-19T05:27:05.238Z,1.10
2023-09-19T05:29:32.816Z,1.07
2023-09-19T05:32:00.298Z,1.40
2023-09-19T05:34:29.206Z,1.10
2023-09-19T05:36:58.072Z,1.10
2023-09-19T05:39:26.305Z,1.00
2023-09-19T05:41:53.821Z,0.80
2023-09-19T05:44:21.432Z,0.80
2023-09-19T05:46:49.382Z,1.00
2023-09-19T05:49:17.117Z,0.77
2023-09-19T05:51:44.626Z,0.80
2023-09-19T05:54:14.186Z,1.00
2023-09-19T05:56:43.111Z,0.90
2023-09-19T05:59:10.586Z,1.07
2023-09-19T06:01:39.718Z,1.03
2023-09-19T06:04:08.140Z,0.80
2023-09-19T06:06:40.031Z,1.00
2023-09-19T06:09:07.969Z,0.77
2023-09-19T06:11:37.331Z,0.83
2023-09-19T06:14:05.697Z,1.00
2023-09-19T06:16:34.062Z,0.87
2023-09-19T06:19:01.805Z,0.90
2023-09-19T06:21:29.520Z,1.20
2023-09-19T06:23:59.082Z,1.20
2023-09-19T06:26:27.926Z,0.80
2023-09-19T06:28:56.978Z,1.00
2023-09-19T06:31:27.333Z,1.10
2023-09-19T06:33:55.106Z,0.93
2023-09-19T06:36:22.963Z,0.90
2023-09-19T06:38:52.423Z,0.80
2023-09-19T06:41:21.250Z,0.70
2023-09-19T06:43:49.622Z,0.80
2023-09-19T06:46:18.561Z,1.00
2023-09-19T06:48:49.059Z,0.73
2023-09-19T06:51:17.543Z,0.93
2023-09-19T06:53:46.819Z,0.70
2023-09-19T06:56:14.307Z,0.80
2023-09-19T06:58:44.707Z,0.70
2023-09-19T07:01:16.419Z,1.40
2023-09-19T07:03:46.903Z,1.10
2023-09-19T07:06:14.473Z,0.83
2023-09-19T07:08:41.967Z,0.70
2023-09-19T07:11:09.580Z,1.00
2023-09-19T07:13:38.329Z,1.93
2023-09-19T07:16:06.185Z,0.70
2023-09-19T07:18:35.821Z,0.87
2023-09-19T07:21:07.074Z,0.90
2023-09-19T07:23:35.976Z,0.90
2023-09-19T07:26:06.388Z,0.90
2023-09-19T07:28:36.193Z,1.00
2023-09-19T07:31:04.263Z,0.77
2023-09-19T07:33:32.606Z,0.80
2023-09-19T07:36:02.174Z,0.90
2023-09-19T07:38:31.207Z,1.10
2023-09-19T07:41:03.311Z,1.03
2023-09-19T07:43:31.804Z,0.90
2023-09-19T07:46:01.842Z,0.83
2023-09-19T07:48:29.409Z,0.90
2023-09-19T07:50:56.874Z,0.80
2023-09-19T07:53:24.413Z,0.93
2023-09-19T07:55:56.529Z,0.60
2023-09-19T07:58:24.194Z,1.00
2023-09-19T08:00:52.261Z,0.63
2023-09-19T08:03:19.845Z,0.77
2023-09-19T08:05:49.361Z,0.70
2023-09-19T08:08:17.113Z,0.80
2023-09-19T08:10:46.786Z,0.90
2023-09-19T08:13:19.262Z,0.67
2023-09-19T08:15:49.059Z,0.80
2023-09-19T08:18:17.410Z,0.80
2023-09-19T08:20:47.343Z,0.70
2023-09-19T08:23:15.213Z,0.60
2023-09-19T08:25:44.074Z,0.80
2023-09-19T08:28:15.313Z,0.70
2023-09-19T08:30:44.799Z,0.90
2023-09-19T08:33:12.312Z,0.70
2023-09-19T08:35:40.823Z,0.93
2023-09-19T08:38:08.359Z,1.13
2023-09-19T08:40:40.789Z,0.77
2023-09-19T08:43:08.708Z,0.57
2023-09-19T08:45:37.690Z,0.70
2023-09-19T08:48:15.778Z,0.90
2023-09-19T08:50:45.382Z,0.90
2023-09-19T08:53:16.061Z,0.83
2023-09-19T08:55:45.314Z,0.90
2023-09-19T08:58:16.176Z,1.23
2023-09-19T09:00:47.766Z,1.00
2023-09-19T09:03:16.913Z,0.80
2023-09-19T09:05:47.705Z,1.20
2023-09-19T09:08:17.989Z,0.97
2023-09-19T09:10:46.249Z,1.00
2023-09-19T09:13:15.357Z,0.90
2023-09-19T09:15:45.893Z,0.90
2023-09-19T09:18:14.502Z,0.90
2023-09-19T09:20:45.905Z,1.00
2023-09-19T09:23:15.096Z,0.83
2023-09-19T09:25:49.512Z,0.90
2023-09-19T09:28:21.787Z,0.90
2023-09-19T09:30:50.193Z,0.70
2023-09-19T09:33:19.427Z,0.80
2023-09-19T09:35:53.932Z,0.60
2023-09-19T09:38:22.226Z,0.70
2023-09-19T09:40:53.788Z,0.50
2023-09-19T09:43:32.358Z,0.60
2023-09-19T09:46:19.963Z,0.50
2023-09-19T09:49:09.089Z,0.43
2023-09-19T09:51:39.873Z,0.60
2023-09-19T09:54:15.257Z,0.47
2023-09-19T09:56:55.979Z,0.67
2023-09-19T09:59:25.772Z,0.63
2023-09-19T10:01:55.058Z,0.70
2023-09-19T10:04:30.655Z,0.60
2023-09-19T10:07:06.067Z,0.80
2023-09-19T10:09:48.713Z,0.60
2023-09-19T10:12:18.796Z,0.60
2023-09-19T10:14:48.616Z,0.77
2023-09-19T10:17:21.413Z,0.60
2023-09-19T10:19:58.782Z,0.70
2023-09-19T10:22:28.477Z,0.73
2023-09-19T10:25:02.973Z,0.80
2023-09-19T10:27:38.559Z,0.77
2023-09-19T10:30:09.614Z,0.73
2023-09-19T10:32:38.639Z,0.60
2023-09-19T10:35:08.080Z,0.50
2023-09-19T10:37:39.112Z,0.60
2023-09-19T10:40:09.430Z,0.60
2023-09-19T10:42:39.881Z,0.70
2023-09-19T10:45:14.068Z,0.63
2023-09-19T10:47:41.787Z,0.50
2023-09-19T10:50:14.221Z,0.63
2023-09-19T10:52:44.229Z,0.60
2023-09-19T10:55:17.161Z,0.53
2023-09-19T10:57:45.996Z,0.70
2023-09-19T11:00:24.994Z,0.80
2023-09-19T11:03:12.528Z,0.60
2023-09-19T11:05:41.717Z,0.77
2023-09-19T11:08:12.379Z,0.60
2023-09-19T11:10:46.540Z,0.70
2023-09-19T11:13:27.731Z,0.60
2023-09-19T11:16:16.198Z,0.87
2023-09-19T11:18:56.645Z,0.60
2023-09-19T11:21:43.294Z,0.77
2023-09-19T11:24:39.484Z,0.77
2023-09-19T11:27:19.769Z,0.80
2023-09-19T11:29:48.162Z,0.60
2023-09-19T11:32:18.095Z,0.90
2023-09-19T11:34:47.154Z,0.60
2023-09-19T11:37:34.357Z,0.80
2023-09-19T11:40:16.905Z,0.60
2023-09-19T11:42:46.948Z,0.70
2023-09-19T11:45:47.173Z,1.00
2023-09-19T11:48:16.388Z,0.90
2023-09-19T11:50:45.344Z,0.67
2023-09-19T11:53:13.901Z,0.70
2023-09-19T11:55:41.852Z,0.90
2023-09-19T11:58:15.047Z,0.77
2023-09-19T12:00:44.900Z,1.00
2023-09-19T12:03:15.267Z,0.80
2023-09-19T12:05:42.994Z,0.80
2023-09-19T12:08:11.573Z,0.93
2023-09-19T12:10:46.880Z,0.90
2023-09-19T12:13:19.346Z,1.10
2023-09-19T12:15:48.897Z,0.60
2023-09-19T12:18:29.408Z,0.80
2023-09-19T12:20:57.006Z,1.00
2023-09-19T12:23:24.752Z,0.90
2023-09-19T12:25:54.718Z,1.07
2023-09-19T12:28:24.731Z,0.80
2023-09-19T12:30:56.235Z,0.70
2023-09-19T12:33:27.347Z,0.70
2023-09-19T12:35:55.278Z,0.90
2023-09-19T12:38:26.486Z,0.70
2023-09-19T12:40:54.246Z,0.80
2023-09-19T12:43:22.928Z,0.70
2023-09-19T12:45:51.965Z,0.93
2023-09-19T12:48:21.680Z,0.93
2023-09-19T12:51:06.726Z,0.93
2023-09-19T12:53:37.250Z,0.73
2023-09-19T12:56:06.987Z,0.80
2023-09-19T12:58:36.064Z,1.00
2023-09-19T13:01:15.766Z,0.70
2023-09-19T13:03:45.167Z,0.80
2023-09-19T13:06:14.085Z,0.80
2023-09-19T13:08:43.208Z,0.83
2023-09-19T13:11:13.676Z,0.93
2023-09-19T13:13:50.217Z,0.90
2023-09-19T13:16:23.662Z,0.80
2023-09-19T13:18:53.936Z,1.20
2023-09-19T13:21:29.546Z,1.20
2023-09-19T13:24:00.355Z,1.03
2023-09-19T13:26:29.154Z,1.00
2023-09-19T13:28:57.636Z,1.33
2023-09-19T13:31:26.553Z,1.23
2023-09-19T13:33:54.124Z,0.90
2023-09-19T13:36:21.939Z,0.90
2023-09-19T13:38:50.578Z,1.20
2023-09-19T13:41:18.548Z,1.30
2023-09-19T13:43:49.271Z,1.30
2023-09-19T13:46:17.999Z,1.37
2023-09-19T13:48:46.929Z,1.00
2023-09-19T13:51:15.961Z,1.23
2023-09-19T13:53:43.570Z,1.30
2023-09-19T13:56:13.138Z,1.00
2023-09-19T13:58:43.201Z,1.10
2023-09-19T14:01:13.736Z,0.90
2023-09-19T14:03:41.438Z,1.00
2023-09-19T14:06:10.460Z,1.30
2023-09-19T14:08:38.743Z,0.80
2023-09-19T14:11:07.853Z,1.07
2023-09-19T14:13:35.483Z,1.10
2023-09-19T14:16:06.354Z,1.00
2023-09-19T14:18:33.961Z,1.10
2023-09-19T14:21:04.653Z,1.00
2023-09-19T14:23:37.612Z,1.30
2023-09-19T14:26:06.163Z,1.07
2023-09-19T14:28:34.892Z,1.10
2023-09-19T14:31:05.887Z,1.00
2023-09-19T14:33:33.444Z,1.10
2023-09-19T14:36:04.604Z,0.80
2023-09-19T14:38:34.562Z,1.00
2023-09-19T14:41:03.974Z,1.10
2023-09-19T14:43:31.766Z,0.90
2023-09-19T14:46:00.218Z,1.00
2023-09-19T14:48:28.442Z,1.10
2023-09-19T14:50:57.177Z,0.93
2023-09-19T14:53:26.224Z,1.10
2023-09-19T14:55:56.544Z,1.20
2023-09-19T14:58:27.123Z,1.30
2023-09-19T15:00:56.032Z,1.30
2023-09-19T15:03:23.699Z,1.47
2023-09-19T15:05:52.662Z,1.33
2023-09-19T15:08:21.374Z,1.30
2023-09-19T15:10:52.105Z,1.00
2023-09-19T15:13:19.632Z,1.40
2023-09-19T15:15:54.805Z,1.30
2023-09-19T15:18:23.291Z,0.97
2023-09-19T15:20:51.964Z,1.17
2023-09-19T15:23:21.137Z,1.23
2023-09-19T15:26:00.348Z,1.13
2023-09-19T15:28:27.880Z,1.13
2023-09-19T15:31:00.568Z,1.20
2023-09-19T15:33:28.950Z,1.47
2023-09-19T15:36:02.847Z,1.37
2023-09-19T15:38:32.774Z,1.50
2023-09-19T15:41:01.723Z,1.37
2023-09-19T15:43:29.216Z,1.40
2023-09-19T15:45:56.693Z,1.60
2023-09-19T15:48:26.261Z,1.57
2023-09-19T15:50:54.593Z,1.43
2023-09-19T15:53:22.069Z,1.37
2023-09-19T15:55:49.551Z,1.33
2023-09-19T15:58:17.017Z,1.53
2023-09-19T16:00:45.545Z,1.20
2023-09-19T16:03:14.980Z,1.67
2023-09-19T16:05:43.962Z,1.40
2023-09-19T16:08:11.665Z,1.30
2023-09-19T16:10:39.478Z,1.57
2023-09-19T16:13:08.234Z,1.60
2023-09-19T16:15:41.826Z,1.40
2023-09-19T16:18:10.376Z,1.50
2023-09-19T16:20:40.555Z,1.70
2023-09-19T16:23:09.916Z,1.20
2023-09-19T16:25:37.755Z,1.90
2023-09-19T16:28:06.681Z,1.70
2023-09-19T16:30:35.859Z,1.50
2023-09-19T16:33:03.420Z,1.50
2023-09-19T16:35:30.968Z,1.53
2023-09-19T16:37:59.432Z,1.50
2023-09-19T16:40:28.393Z,1.70
2023-09-19T16:42:55.862Z,1.50
2023-09-19T16:45:23.634Z,1.47
2023-09-19T16:47:51.183Z,1.83
2023-09-19T16:50:20.074Z,1.50
2023-09-19T16:52:47.959Z,1.70
2023-09-19T16:55:16.565Z,1.53
2023-09-19T16:57:45.909Z,1.63
2023-09-19T17:00:15.627Z,1.50
2023-09-19T17:02:44.024Z,1.47
2023-09-19T17:05:12.117Z,1.47
2023-09-19T17:07:39.877Z,1.73
2023-09-19T17:10:08.306Z,1.60
2023-09-19T17:12:36.923Z,1.60
2023-09-19T17:15:06.988Z,1.47
2023-09-19T17:17:35.386Z,1.40
2023-09-19T17:20:03.132Z,1.50
2023-09-19T17:22:31.383Z,1.67
2023-09-19T17:24:59.531Z,1.67
2023-09-19T17:27:27.029Z,1.80
2023-09-19T17:29:54.689Z,1.50
2023-09-19T17:32:23.760Z,1.60
2023-09-19T17:34:52.865Z,1.60
2023-09-19T17:37:20.714Z,1.57
2023-09-19T17:39:48.177Z,1.37
2023-09-19T17:42:16.612Z,1.30
2023-09-19T17:44:44.220Z,1.30
2023-09-19T17:47:12.348Z,1.67
2023-09-19T17:49:42.778Z,1.43
2023-09-19T17:52:13.122Z,1.40
2023-09-19T17:54:40.586Z,1.60
2023-09-19T17:57:08.886Z,1.17
2023-09-19T17:59:36.577Z,1.67
2023-09-19T18:02:04.245Z,1.83
2023-09-19T18:04:31.942Z,1.63
2023-09-19T18:07:02.299Z,1.70
2023-09-19T18:09:29.790Z,1.80
2023-09-19T18:11:58.434Z,1.57
2023-09-19T18:14:25.972Z,1.60
2023-09-19T18:16:57.956Z,1.60
2023-09-19T18:19:25.694Z,1.70
2023-09-19T18:21:53.456Z,1.57
2023-09-19T18:24:22.409Z,1.50
2023-09-19T18:26:49.954Z,1.80
2023-09-19T18:29:17.659Z,1.77
2023-09-19T18:31:46.263Z,1.47
2023-09-19T18:34:14.015Z,1.57
2023-09-19T18:36:41.778Z,1.57
2023-09-19T18:39:11.153Z,1.43
2023-09-19T18:41:40.075Z,1.27
2023-09-19T18:44:07.868Z,1.43
2023-09-19T18:46:35.709Z,1.60
2023-09-19T18:49:03.320Z,1.30
2023-09-19T18:51:30.787Z,1.40
2023-09-19T18:54:11.857Z,1.30
2023-09-19T18:56:45.975Z,1.47
2023-09-19T18:59:14.846Z,1.30
2023-09-19T19:01:44.682Z,1.27
2023-09-19T19:04:13.132Z,1.40
2023-09-19T19:06:40.647Z,1.50
2023-09-19T19:09:10.431Z,1.43
2023-09-19T19:11:37.995Z,1.17
2023-09-19T19:14:07.142Z,1.10
2023-09-19T19:16:36.886Z,1.63
2023-09-19T19:19:04.581Z,1.13
2023-09-19T19:21:32.457Z,1.40
2023-09-19T19:23:59.937Z,1.50
2023-09-19T19:26:27.966Z,1.33
2023-09-19T19:28:55.717Z,1.27
2023-09-19T19:31:25.825Z,1.13
2023-09-19T19:33:54.687Z,1.57
2023-09-19T19:36:23.844Z,1.10
2023-09-19T19:38:53.277Z,1.20
2023-09-19T19:41:20.936Z,0.90
2023-09-19T19:43:50.113Z,1.30
2023-09-19T19:46:17.774Z,1.30
2023-09-19T19:48:49.479Z,1.20
2023-09-19T19:51:16.985Z,1.30
2023-09-19T19:53:44.966Z,1.10
2023-09-19T19:56:12.478Z,1.20
2023-09-19T19:58:40.107Z,1.30
2023-09-19T20:01:10.079Z,1.17
2023-09-19T20:03:38.012Z,1.07
2023-09-19T20:06:07.600Z,1.00
2023-09-19T20:08:35.407Z,1.03
2023-09-19T20:11:04.685Z,0.90
2023-09-19T20:13:32.712Z,1.30
2023-09-19T20:16:00.941Z,1.30
2023-09-19T20:18:28.537Z,1.40
2023-09-19T20:20:56.874Z,1.37
2023-09-19T20:23:25.843Z,1.20
2023-09-19T20:25:53.600Z,1.20
2023-09-19T20:28:21.810Z,1.20
2023-09-19T20:30:49.509Z,1.30
2023-09-19T20:33:17.160Z,1.13
2023-09-19T20:35:45.471Z,1.20
2023-09-19T20:38:14.070Z,1.10
2023-09-19T20:40:44.636Z,1.10
2023-09-19T20:43:12.363Z,0.90
2023-09-19T20:45:41.758Z,0.90
2023-09-19T20:48:11.560Z,0.83
2023-09-19T20:50:40.028Z,1.10
2023-09-19T20:53:08.145Z,1.27
2023-09-19T20:55:38.054Z,1.40
2023-09-19T20:58:08.029Z,1.07
2023-09-19T21:00:36.242Z,1.10
2023-09-19T21:03:04.811Z,1.17
2023-09-19T21:05:33.114Z,1.10
2023-09-19T21:08:01.623Z,1.27
2023-09-19T21:10:30.614Z,1.10
2023-09-19T21:12:58.858Z,1.10
2023-09-19T21:15:29.400Z,1.20
2023-09-19T21:17:57.320Z,1.50
2023-09-19T21:20:27.322Z,1.00
2023-09-19T21:22:57.264Z,1.10
2023-09-19T21:25:25.905Z,0.80
2023-09-19T21:27:53.413Z,1.10
2023-09-19T21:30:21.073Z,0.93
2023-09-19T21:32:50.350Z,0.90
2023-09-19T21:35:19.329Z,1.20
2023-09-19T21:37:47.042Z,1.10
2023-09-19T21:40:14.921Z,1.03
2023-09-19T21:42:42.394Z,1.03
2023-09-19T21:45:10.179Z,0.93
2023-09-19T21:47:37.753Z,1.10
2023-09-19T21:50:07.923Z,1.03
2023-09-19T21:52:35.502Z,0.90
2023-09-19T21:55:04.707Z,1.20
2023-09-19T21:57:32.904Z,1.07
2023-09-19T22:00:00.676Z,0.80
2023-09-19T22:02:28.503Z,1.17
2023-09-19T22:04:56.537Z,1.20
2023-09-19T22:07:26.642Z,1.20
2023-09-19T22:09:54.108Z,1.00
2023-09-19T22:12:22.871Z,0.87
2023-09-19T22:14:51.009Z,1.10
2023-09-19T22:17:19.822Z,1.00
2023-09-19T22:19:47.346Z,1.33
2023-09-19T22:22:18.222Z,1.10
2023-09-19T22:24:47.142Z,1.10
2023-09-19T22:27:14.638Z,1.10
2023-09-19T22:29:44.904Z,0.90
2023-09-19T22:32:13.551Z,1.00
2023-09-19T22:34:42.036Z,0.97
2023-09-19T22:37:12.170Z,0.90
2023-09-19T22:39:39.670Z,0.80
2023-09-19T22:42:12.383Z,1.30
2023-09-19T22:44:40.533Z,1.03
2023-09-19T22:47:08.900Z,1.40
2023-09-19T22:49:38.828Z,1.07
2023-09-19T22:52:09.445Z,1.20
2023-09-19T22:54:38.571Z,1.00
2023-09-19T22:57:10.861Z,1.40
2023-09-19T22:59:40.814Z,1.30
2023-09-19T23:02:11.812Z,1.00
2023-09-19T23:04:39.593Z,1.00
2023-09-19T23:07:09.927Z,1.03
2023-09-19T23:09:38.038Z,1.10
2023-09-19T23:12:07.419Z,0.80
2023-09-19T23:14:39.522Z,1.17
2023-09-19T23:17:12.975Z,2.37
2023-09-19T23:19:41.448Z,0.90
2023-09-19T23:22:12.469Z,1.23
2023-09-19T23:24:42.082Z,1.13
2023-09-19T23:27:18.043Z,0.97
2023-09-19T23:29:47.576Z,0.70
2023-09-19T23:32:16.374Z,1.10
2023-09-19T23:34:44.557Z,1.00
2023-09-19T23:37:12.662Z,1.10
2023-09-19T23:39:42.092Z,0.90
2023-09-19T23:42:12.778Z,0.77
2023-09-19T23:44:42.710Z,0.90
2023-09-19T23:47:12.082Z,0.80
2023-09-19T23:49:41.065Z,0.83
2023-09-19T23:52:10.902Z,0.80
2023-09-19T23:54:41.368Z,0.90
2023-09-19T23:57:11.824Z,0.70
2023-09-19T23:59:43.649Z,0.80
